Time;durP1;ratioP1;P1;durP2;ratioP2;P2;SDS_P1;SDS_P2;PMS_P1;PMS_P2;Temp;Humidity;BMP_temperature;BMP_pressure;BME280_temperature;BME280_humidity;BME280_pressure;Samples;Min_cycle;Max_cycle;Signal;HPM_P1;HPM_P2
2021/12/21 00:00:28;;;;;;;27.50;7.57;;;;;-0.30;102168.00;;;;5012808;28;20241;-73
2021/12/21 00:03:15;;;;;;;25.63;6.53;;;;;-0.30;102161.00;;;;4988025;28;20243;-71
2021/12/21 00:06:01;;;;;;;19.43;6.97;;;;;-0.50;102158.00;;;;5000821;28;20237;-72
2021/12/21 00:08:47;;;;;;;20.47;6.80;;;;;-0.40;102154.00;;;;4973272;28;20226;-72
2021/12/21 00:11:35;;;;;;;13.60;5.93;;;;;-0.50;102162.00;;;;4985710;28;20314;-73
2021/12/21 00:14:32;;;;;;;22.53;6.80;;;;;-0.30;102163.00;;;;5011382;28;20229;-71
2021/12/21 00:17:32;;;;;;;19.17;7.17;;;;;-0.40;102161.00;;;;5006107;28;20296;-71
2021/12/21 00:20:34;;;;;;;24.87;7.10;;;;;-0.50;102160.00;;;;5014847;28;20249;-73
2021/12/21 00:23:33;;;;;;;11.60;5.83;;;;;-0.40;102158.00;;;;5006926;28;20372;-72
2021/12/21 00:26:21;;;;;;;26.33;7.30;;;;;-0.60;102166.00;;;;4993618;28;20713;-73
2021/12/21 00:29:07;;;;;;;20.60;7.30;;;;;-0.50;102158.00;;;;5002779;28;20241;-73
2021/12/21 00:31:55;;;;;;;12.57;6.93;;;;;-0.60;102154.00;;;;5000588;28;20250;-72
2021/12/21 00:34:42;;;;;;;20.73;6.63;;;;;-0.60;102151.00;;;;4999755;28;20233;-72
2021/12/21 00:37:28;;;;;;;33.00;7.87;;;;;-0.60;102149.00;;;;5008326;28;20756;-72
2021/12/21 00:40:15;;;;;;;42.00;7.03;;;;;-0.70;102145.00;;;;4986875;28;20249;-72
2021/12/21 00:43:02;;;;;;;15.67;7.50;;;;;-0.60;102118.00;;;;5004753;28;20236;-72
2021/12/21 00:45:48;;;;;;;35.87;10.60;;;;;-0.70;102137.00;;;;4995739;28;20270;-72
2021/12/21 00:48:37;;;;;;;38.67;12.53;;;;;-0.70;102132.00;;;;5015524;28;20349;-72
2021/12/21 00:51:26;;;;;;;31.60;7.80;;;;;-0.60;102148.00;;;;5007735;28;20369;-72
2021/12/21 00:54:14;;;;;;;21.47;7.83;;;;;-0.60;102140.00;;;;5010772;28;20232;-73
2021/12/21 00:57:00;;;;;;;27.70;8.47;;;;;-0.70;102136.00;;;;5007781;28;20229;-70
2021/12/21 00:59:47;;;;;;;16.83;8.37;;;;;-0.80;102118.00;;;;5018245;28;20379;-73
2021/12/21 01:02:34;;;;;;;15.13;7.40;;;;;-0.70;102099.00;;;;5008072;28;20249;-71
2021/12/21 01:05:29;;;;;;;21.07;8.10;;;;;-0.70;102120.00;;;;5016132;28;20240;-71
2021/12/21 01:08:20;;;;;;;21.87;6.83;;;;;-0.70;102136.00;;;;5006095;28;20250;-71
2021/12/21 01:11:16;;;;;;;29.43;7.53;;;;;-0.70;102129.00;;;;5010371;28;20246;-71
2021/12/21 01:14:17;;;;;;;20.47;8.47;;;;;-0.70;102131.00;;;;5005683;28;20364;-69
2021/12/21 01:17:09;;;;;;;13.23;7.10;;;;;-0.70;102133.00;;;;5022774;28;20987;-71
2021/12/21 01:20:03;;;;;;;22.40;7.43;;;;;-0.60;102136.00;;;;5004138;28;20233;-73
2021/12/21 01:23:08;;;;;;;17.97;7.73;;;;;-0.60;102118.00;;;;4987905;28;20596;-72
2021/12/21 01:26:01;;;;;;;22.80;7.90;;;;;-0.70;102112.00;;;;5036456;28;20241;-76
2021/12/21 01:28:54;;;;;;;36.43;6.73;;;;;-0.70;102130.00;;;;5013607;28;20259;-76
2021/12/21 01:31:49;;;;;;;27.53;7.07;;;;;-0.70;102120.00;;;;5053835;28;20257;-76
2021/12/21 01:34:45;;;;;;;30.03;8.37;;;;;-0.90;102087.00;;;;5033449;28;20226;-75
2021/12/21 01:37:43;;;;;;;30.13;9.00;;;;;-0.80;102129.00;;;;5024596;28;20231;-76
2021/12/21 01:40:40;;;;;;;18.27;7.43;;;;;-0.90;102126.00;;;;5050345;28;20224;-75
2021/12/21 01:43:32;;;;;;;59.00;9.67;;;;;-1.00;102117.00;;;;5052070;28;20229;-76
2021/12/21 01:49:41;;;;;;;11.83;6.50;;;;;-0.90;102118.00;;;;5024324;28;20266;-76
2021/12/21 01:52:28;;;;;;;18.23;6.83;;;;;-1.00;102116.00;;;;5019649;28;20293;-71
2021/12/21 01:55:15;;;;;;;17.73;7.47;;;;;-0.80;102122.00;;;;4989285;28;20222;-72
2021/12/21 01:58:03;;;;;;;21.80;7.17;;;;;-0.90;102109.00;;;;5004845;28;20713;-72
2021/12/21 02:00:49;;;;;;;23.70;7.17;;;;;-1.00;102114.00;;;;5003818;28;20285;-73
2021/12/21 02:03:36;;;;;;;16.80;6.20;;;;;-1.10;102116.00;;;;5015259;28;20293;-73
2021/12/21 02:06:25;;;;;;;24.17;7.60;;;;;-1.00;102106.00;;;;5013078;28;20814;-72
2021/12/21 02:09:11;;;;;;;12.83;6.87;;;;;-1.10;102110.00;;;;5012689;28;20234;-73
2021/12/21 02:11:58;;;;;;;13.77;7.20;;;;;-1.00;102105.00;;;;5009340;28;20579;-72
2021/12/21 02:14:53;;;;;;;17.27;8.13;;;;;-1.10;102113.00;;;;5004277;28;20241;-71
2021/12/21 02:18:23;;;;;;;12.87;7.03;;;;;-1.10;102113.00;;;;5001142;28;20581;-73
2021/12/21 02:21:20;;;;;;;23.60;7.10;;;;;-0.90;102105.00;;;;5004436;28;20265;-69
2021/12/21 02:24:12;;;;;;;34.40;7.60;;;;;-1.20;102096.00;;;;5003841;28;20230;-70
2021/12/21 02:27:16;;;;;;;9.03;5.47;;;;;-1.10;102101.00;;;;5005615;28;20292;-72
2021/12/21 02:30:03;;;;;;;14.43;7.10;;;;;-1.20;102110.00;;;;5004347;28;20241;-70
2021/12/21 02:32:50;;;;;;;12.33;7.10;;;;;-1.40;102099.00;;;;5010286;28;20241;-72
2021/12/21 02:35:36;;;;;;;13.53;7.33;;;;;-1.30;101900.00;;;;4985125;28;20235;-71
2021/12/21 02:38:25;;;;;;;11.67;6.20;;;;;-1.10;102097.00;;;;4991666;28;20233;-72
2021/12/21 02:41:11;;;;;;;14.90;6.87;;;;;-1.10;102101.00;;;;4982090;28;20235;-75
2021/12/21 02:43:57;;;;;;;19.77;7.73;;;;;-1.10;102088.00;;;;5002952;28;20245;-72
2021/12/21 02:46:45;;;;;;;25.17;7.97;;;;;-1.20;102097.00;;;;4977998;28;20969;-72
2021/12/21 02:49:31;;;;;;;12.20;7.07;;;;;-1.10;102092.00;;;;5010298;28;20732;-74
2021/12/21 02:52:18;;;;;;;29.03;8.30;;;;;-1.10;102089.00;;;;4980654;28;20226;-73
2021/12/21 02:55:07;;;;;;;15.27;7.10;;;;;-1.10;102090.00;;;;5006502;28;20217;-72
2021/12/21 02:57:53;;;;;;;23.57;7.90;;;;;-1.10;102080.00;;;;5014517;28;20230;-72
2021/12/21 03:00:40;;;;;;;13.23;6.63;;;;;-1.30;102083.00;;;;5010529;28;20245;-73
2021/12/21 03:03:28;;;;;;;13.17;7.07;;;;;-1.30;102086.00;;;;5014168;28;20593;-73
2021/12/21 03:06:39;;;;;;;13.47;7.37;;;;;-1.30;102081.00;;;;5014063;28;20262;-72
2021/12/21 03:09:38;;;;;;;18.97;6.83;;;;;-1.30;102089.00;;;;5001315;28;20234;-72
2021/12/21 03:13:52;;;;;;;15.03;7.63;;;;;-1.40;102088.00;;;;5000263;28;20287;-72
2021/12/21 03:15:41;;;;;;;21.53;7.20;;;;;-1.30;102086.00;;;;4998248;28;20222;-74
2021/12/21 03:18:27;;;;;;;15.63;7.57;;;;;-1.20;102089.00;;;;5002941;28;20262;-73
2021/12/21 03:21:13;;;;;;;12.23;7.10;;;;;-1.20;102084.00;;;;4994327;28;20221;-73
2021/12/21 03:24:00;;;;;;;15.83;7.17;;;;;-1.30;102091.00;;;;4997832;28;20230;-71
2021/12/21 03:26:47;;;;;;;15.40;7.63;;;;;-1.20;102077.00;;;;5003492;28;20237;-71
2021/12/21 03:29:34;;;;;;;17.27;7.10;;;;;-1.20;102085.00;;;;5008267;28;20721;-72
2021/12/21 03:32:20;;;;;;;15.90;7.30;;;;;-1.30;102074.00;;;;5011726;28;20246;-72
2021/12/21 03:35:08;;;;;;;23.13;7.60;;;;;-1.20;102079.00;;;;4989765;28;20234;-75
2021/12/21 03:37:54;;;;;;;15.17;7.00;;;;;-1.20;102081.00;;;;4982259;28;20281;-72
2021/12/21 03:40:40;;;;;;;16.93;8.03;;;;;-1.40;102076.00;;;;4986584;28;20367;-73
2021/12/21 03:43:29;;;;;;;15.37;8.10;;;;;-1.20;102058.00;;;;4994978;28;20363;-73
2021/12/21 03:46:17;;;;;;;14.03;7.30;;;;;-1.30;102090.00;;;;4984411;28;20246;-72
2021/12/21 03:49:22;;;;;;;21.37;8.30;;;;;-1.30;102093.00;;;;5005627;28;20289;-73
2021/12/21 03:52:11;;;;;;;18.23;8.70;;;;;-1.30;102081.00;;;;4999182;28;20388;-72
2021/12/21 03:55:02;;;;;;;13.83;7.47;;;;;-1.40;102080.00;;;;5007876;28;20296;-72
2021/12/21 03:57:48;;;;;;;13.03;7.20;;;;;-1.30;102080.00;;;;4976982;28;20233;-72
2021/12/21 04:00:35;;;;;;;15.73;8.13;;;;;-1.40;102084.00;;;;4987221;28;20258;-71
2021/12/21 04:03:22;;;;;;;13.70;7.47;;;;;-1.20;102089.00;;;;5015658;28;20232;-72
2021/12/21 04:06:09;;;;;;;13.37;7.83;;;;;-1.20;102081.00;;;;5011423;28;20234;-73
2021/12/21 04:08:55;;;;;;;15.17;7.57;;;;;-1.20;102073.00;;;;4996435;28;20229;-72
2021/12/21 04:11:42;;;;;;;16.53;8.30;;;;;-1.20;102054.00;;;;5014442;28;20763;-73
2021/12/21 04:14:29;;;;;;;21.13;8.00;;;;;-1.30;102073.00;;;;5014336;28;20688;-71
2021/12/21 04:17:21;;;;;;;20.90;8.27;;;;;-1.40;102070.00;;;;5014711;28;20655;-72
2021/12/21 04:20:09;;;;;;;33.60;8.53;;;;;-1.40;102060.00;;;;5002890;28;20226;-72
2021/12/21 04:22:55;;;;;;;36.13;7.73;;;;;-1.50;102070.00;;;;5007845;28;20241;-73
2021/12/21 04:25:43;;;;;;;23.90;8.00;;;;;-1.40;102073.00;;;;5007672;28;20246;-73
2021/12/21 04:28:29;;;;;;;24.80;8.57;;;;;-1.40;102064.00;;;;5010032;28;20249;-73
2021/12/21 04:31:15;;;;;;;15.00;8.53;;;;;-1.40;102066.00;;;;4987573;28;20705;-73
2021/12/21 04:34:02;;;;;;;37.53;8.33;;;;;-1.50;102050.00;;;;4981677;28;20226;-72
2021/12/21 04:36:50;;;;;;;40.27;8.70;;;;;-1.60;102074.00;;;;4984228;28;20223;-74
2021/12/21 04:39:43;;;;;;;37.47;9.33;;;;;-1.50;102064.00;;;;4987116;28;20234;-71
2021/12/21 04:42:29;;;;;;;18.73;8.37;;;;;-1.50;102083.00;;;;5008002;28;20245;-73
2021/12/21 04:45:16;;;;;;;30.33;8.67;;;;;-1.50;102063.00;;;;4986945;28;20234;-74
2021/12/21 04:48:02;;;;;;;18.43;8.53;;;;;-1.60;102060.00;;;;5006927;28;20221;-72
2021/12/21 04:50:48;;;;;;;14.80;8.43;;;;;-1.40;102076.00;;;;5009501;28;20291;-73
2021/12/21 04:53:36;;;;;;;20.83;9.23;;;;;-1.50;102060.00;;;;5010036;28;20611;-74
2021/12/21 04:56:23;;;;;;;22.60;8.27;;;;;-1.50;102064.00;;;;5021408;28;20229;-71
2021/12/21 04:59:09;;;;;;;24.60;8.40;;;;;-1.50;102061.00;;;;5007378;28;20254;-72
2021/12/21 05:02:01;;;;;;;23.67;8.53;;;;;-1.30;102031.00;;;;4983489;28;20234;-75
2021/12/21 05:04:47;;;;;;;22.23;8.17;;;;;-1.50;102074.00;;;;4986981;28;20273;-72
2021/12/21 05:07:36;;;;;;;21.57;8.07;;;;;-1.50;102075.00;;;;4986011;28;20242;-72
2021/12/21 05:10:24;;;;;;;18.83;8.47;;;;;-1.40;102066.00;;;;5006586;28;20596;-72
2021/12/21 05:13:10;;;;;;;34.80;9.77;;;;;-1.40;102067.00;;;;5002435;28;20231;-72
2021/12/21 05:15:57;;;;;;;15.83;8.47;;;;;-1.40;102056.00;;;;4980309;28;20361;-73
2021/12/21 05:18:43;;;;;;;23.33;8.47;;;;;-1.40;102057.00;;;;4976984;28;20234;-73
2021/12/21 05:21:29;;;;;;;20.23;9.93;;;;;-1.40;102053.00;;;;5012585;28;20236;-70
2021/12/21 05:24:16;;;;;;;26.43;9.07;;;;;-1.50;102058.00;;;;5013858;28;20233;-72
2021/12/21 05:27:04;;;;;;;69.37;10.80;;;;;-1.40;102056.00;;;;4983228;28;20737;-72
2021/12/21 05:29:51;;;;;;;27.80;9.73;;;;;-1.30;102062.00;;;;4999668;28;20242;-72
2021/12/21 05:32:37;;;;;;;28.93;10.40;;;;;-1.30;102066.00;;;;5012098;28;20653;-72
2021/12/21 05:35:25;;;;;;;34.10;10.23;;;;;-1.40;102059.00;;;;5011792;28;20238;-70
2021/12/21 05:38:17;;;;;;;36.83;10.13;;;;;-1.40;102058.00;;;;5001710;28;20297;-73
2021/12/21 05:41:06;;;;;;;15.23;8.57;;;;;-1.50;102070.00;;;;5000453;28;20233;-71
2021/12/21 05:43:54;;;;;;;40.67;11.07;;;;;-1.40;102076.00;;;;4998996;28;20299;-71
2021/12/21 05:46:40;;;;;;;60.17;11.03;;;;;-1.40;102073.00;;;;5003747;28;20233;-72
2021/12/21 05:49:26;;;;;;;20.07;9.90;;;;;-1.40;102064.00;;;;5012597;28;20310;-72
2021/12/21 05:52:13;;;;;;;30.20;10.00;;;;;-1.50;102074.00;;;;5012567;28;20258;-71
2021/12/21 05:54:59;;;;;;;18.37;10.33;;;;;-1.40;102074.00;;;;4996960;28;20225;-72
2021/12/21 05:57:46;;;;;;;22.17;9.93;;;;;-1.40;102072.00;;;;5013425;28;20226;-72
2021/12/21 06:00:35;;;;;;;34.03;10.93;;;;;-1.30;102072.00;;;;5010400;28;20237;-71
2021/12/21 06:03:21;;;;;;;30.43;11.60;;;;;-1.30;102075.00;;;;5008193;28;20233;-73
2021/12/21 06:06:14;;;;;;;25.10;11.40;;;;;-1.30;102074.00;;;;4996636;28;20234;-71
2021/12/21 06:09:05;;;;;;;31.97;10.33;;;;;-1.30;102083.00;;;;5003023;28;20589;-71
2021/12/21 06:12:03;;;;;;;33.03;11.33;;;;;-1.40;102039.00;;;;4999669;28;20672;-72
2021/12/21 06:15:10;;;;;;;28.20;11.00;;;;;-1.30;102084.00;;;;4990205;28;20226;-69
2021/12/21 06:27:08;;;;;;;18.23;10.07;;;;;-1.30;102078.00;;;;5014700;28;20240;-72
2021/12/21 06:29:55;;;;;;;23.87;11.03;;;;;-1.30;102075.00;;;;5002717;28;20299;-72
2021/12/21 06:32:41;;;;;;;23.00;11.40;;;;;-1.30;102083.00;;;;5009029;28;20233;-71
2021/12/21 06:35:29;;;;;;;31.13;11.83;;;;;-1.20;102072.00;;;;5011866;28;20241;-72
2021/12/21 06:38:16;;;;;;;26.40;12.17;;;;;-1.40;102082.00;;;;4989494;28;21139;-72
2021/12/21 06:41:03;;;;;;;29.57;13.03;;;;;-1.30;102068.00;;;;5010075;28;20232;-74
2021/12/21 06:43:50;;;;;;;33.63;13.00;;;;;-1.30;102088.00;;;;4986915;28;20674;-72
2021/12/21 06:46:52;;;;;;;30.97;10.67;;;;;-1.40;102078.00;;;;5019634;28;20924;-71
2021/12/21 06:52:44;;;;;;;21.20;10.67;;;;;-1.30;102086.00;;;;5003226;28;20230;-72
2021/12/21 06:55:30;;;;;;;20.87;10.47;;;;;-1.40;102078.00;;;;5014823;28;20232;-71
2021/12/21 06:58:17;;;;;;;23.27;11.97;;;;;-1.30;102069.00;;;;5018346;28;20644;-73
2021/12/21 07:01:05;;;;;;;23.00;10.00;;;;;-1.20;102071.00;;;;4999819;28;20349;-72
2021/12/21 07:03:56;;;;;;;23.40;12.43;;;;;-1.40;102076.00;;;;5003164;28;20233;-72
2021/12/21 07:06:45;;;;;;;25.50;11.53;;;;;-1.30;102064.00;;;;5000324;28;20361;-71
2021/12/21 07:09:38;;;;;;;23.97;10.70;;;;;-1.30;102069.00;;;;5002880;28;20304;-73
2021/12/21 07:17:48;;;;;;;23.50;11.47;;;;;-1.10;102068.00;;;;5009628;28;20472;-71
2021/12/21 07:18:38;;;;;;;54.80;11.10;;;;;-1.20;102081.00;;;;5011360;28;20343;-71
2021/12/21 07:21:24;;;;;;;27.43;11.27;;;;;-1.20;102077.00;;;;5009124;28;20241;-72
2021/12/21 07:24:10;;;;;;;23.40;11.07;;;;;-1.20;102066.00;;;;4999426;28;20721;-70
2021/12/21 07:26:58;;;;;;;25.37;11.73;;;;;-1.30;102076.00;;;;4988810;28;20375;-71
2021/12/21 07:29:44;;;;;;;36.27;11.83;;;;;-1.30;102077.00;;;;4981649;28;20234;-71
2021/12/21 07:32:31;;;;;;;25.13;11.13;;;;;-1.50;102076.00;;;;5000690;28;20245;-70
2021/12/21 07:35:17;;;;;;;23.47;11.13;;;;;-1.40;102064.00;;;;4988239;28;20363;-70
2021/12/21 07:38:04;;;;;;;35.93;10.43;;;;;-1.40;102081.00;;;;4990987;28;20234;-72
2021/12/21 07:40:50;;;;;;;50.90;15.30;;;;;-1.40;102086.00;;;;5000031;28;20317;-72
2021/12/21 07:43:38;;;;;;;50.20;19.50;;;;;-1.30;102090.00;;;;5004288;28;20308;-72
2021/12/21 07:46:25;;;;;;;38.13;16.83;;;;;-1.30;102089.00;;;;5006809;28;20714;-72
2021/12/21 07:49:11;;;;;;;26.83;12.73;;;;;-1.40;102094.00;;;;5002310;28;20241;-72
2021/12/21 07:52:00;;;;;;;29.63;12.70;;;;;-1.30;102087.00;;;;5000997;28;20242;-72
2021/12/21 07:54:46;;;;;;;27.60;12.07;;;;;-1.30;102095.00;;;;4981187;28;20283;-73
2021/12/21 07:57:33;;;;;;;29.10;13.80;;;;;-1.30;102110.00;;;;5010095;28;20237;-72
2021/12/21 08:00:21;;;;;;;21.33;11.80;;;;;-1.30;102093.00;;;;4980692;28;20235;-73
2021/12/21 08:03:09;;;;;;;31.83;14.63;;;;;-1.20;102106.00;;;;5009123;28;20295;-73
2021/12/21 08:05:58;;;;;;;33.77;15.20;;;;;-1.20;102098.00;;;;4982297;28;20235;-73
2021/12/21 08:08:45;;;;;;;27.47;13.03;;;;;-1.30;102109.00;;;;4994267;28;20342;-71
2021/12/21 08:14:33;;;;;;;30.07;14.07;;;;;-1.20;102101.00;;;;4993811;28;20234;-72
2021/12/21 08:17:21;;;;;;;27.37;11.87;;;;;-1.20;102100.00;;;;4987759;28;20230;-72
2021/12/21 08:20:08;;;;;;;23.70;11.53;;;;;-1.20;102102.00;;;;5002774;28;20717;-72
2021/12/21 08:22:54;;;;;;;26.90;13.50;;;;;-1.20;102072.00;;;;5005318;28;20246;-72
2021/12/21 08:25:41;;;;;;;28.23;12.57;;;;;-1.20;102091.00;;;;5013200;28;21019;-73
2021/12/21 08:28:27;;;;;;;20.97;12.03;;;;;-1.20;102091.00;;;;5013276;28;20310;-71
2021/12/21 08:31:13;;;;;;;30.87;14.27;;;;;-1.20;102080.00;;;;5013975;28;20234;-73
2021/12/21 08:34:02;;;;;;;25.40;11.90;;;;;-1.30;102081.00;;;;5007742;28;20249;-73
2021/12/21 08:36:49;;;;;;;31.53;13.20;;;;;-1.30;102089.00;;;;5009082;28;20229;-72
2021/12/21 08:39:39;;;;;;;21.90;11.83;;;;;-1.20;102090.00;;;;5005697;28;20233;-71
2021/12/21 08:42:26;;;;;;;24.40;12.77;;;;;-1.30;102094.00;;;;5008127;28;20321;-71
2021/12/21 08:45:13;;;;;;;24.57;12.27;;;;;-1.30;102091.00;;;;4980243;28;20668;-71
2021/12/21 08:48:00;;;;;;;20.70;10.87;;;;;-1.20;102092.00;;;;5000925;28;20232;-71
2021/12/21 08:50:50;;;;;;;24.33;13.30;;;;;-1.20;102082.00;;;;4988523;28;20972;-74
2021/12/21 08:53:42;;;;;;;24.37;12.57;;;;;-1.10;102094.00;;;;5007114;28;20380;-72
2021/12/21 08:56:28;;;;;;;26.73;12.37;;;;;-1.20;102086.00;;;;5020123;28;20238;-73
2021/12/21 08:59:15;;;;;;;34.20;11.70;;;;;-1.30;102087.00;;;;5011283;28;20620;-72
2021/12/21 09:02:01;;;;;;;36.03;11.57;;;;;-1.30;102091.00;;;;4980774;28;20714;-73
2021/12/21 09:04:47;;;;;;;40.93;14.00;;;;;-1.10;102100.00;;;;4979891;28;20374;-70
2021/12/21 09:07:35;;;;;;;27.10;12.50;;;;;-1.20;102093.00;;;;5011868;28;20766;-74
2021/12/21 09:10:23;;;;;;;24.20;12.27;;;;;-1.40;102106.00;;;;5009988;28;20236;-71
2021/12/21 09:13:11;;;;;;;32.67;12.90;;;;;-1.30;102102.00;;;;5003061;28;20230;-72
2021/12/21 09:16:02;;;;;;;34.57;10.93;;;;;-1.50;102075.00;;;;5000613;28;20325;-71
2021/12/21 09:18:51;;;;;;;40.73;11.00;;;;;-1.30;102109.00;;;;4974553;28;20305;-72
2021/12/21 09:21:37;;;;;;;49.80;12.20;;;;;-1.30;102105.00;;;;4990838;28;20229;-72
2021/12/21 09:24:25;;;;;;;32.60;11.63;;;;;-1.30;102111.00;;;;4996177;28;20230;-71
2021/12/21 09:27:12;;;;;;;27.97;12.80;;;;;-1.30;102115.00;;;;4997060;28;20226;-72
2021/12/21 09:29:59;;;;;;;27.83;12.60;;;;;-1.20;102109.00;;;;4985717;28;20230;-70
2021/12/21 09:32:45;;;;;;;27.00;11.80;;;;;-1.10;102114.00;;;;4992113;28;20242;-72
2021/12/21 09:35:32;;;;;;;31.50;11.27;;;;;-1.20;102113.00;;;;5005757;28;20265;-72
2021/12/21 09:38:18;;;;;;;27.13;12.00;;;;;-1.10;102113.00;;;;5008374;28;20230;-73
2021/12/21 09:41:06;;;;;;;18.83;11.73;;;;;-1.20;102092.00;;;;5004436;28;20241;-73
2021/12/21 09:43:52;;;;;;;27.93;11.43;;;;;-1.30;102113.00;;;;5001219;28;20234;-71
2021/12/21 09:46:39;;;;;;;31.70;11.27;;;;;-1.20;102109.00;;;;5006349;28;20306;-72
2021/12/21 09:49:25;;;;;;;37.47;11.07;;;;;-1.20;102113.00;;;;5013373;28;20233;-74
2021/12/21 09:52:14;;;;;;;33.37;10.80;;;;;-1.10;102109.00;;;;5013986;28;20229;-72
2021/12/21 09:55:01;;;;;;;27.17;11.07;;;;;-1.10;102109.00;;;;4997048;28;20730;-68
2021/12/21 09:57:50;;;;;;;22.47;11.60;;;;;-1.00;102113.00;;;;4999467;28;20365;-72
2021/12/21 10:00:36;;;;;;;25.10;13.30;;;;;-1.00;102113.00;;;;5021028;28;20241;-72
2021/12/21 10:03:23;;;;;;;33.63;13.20;;;;;-0.80;102118.00;;;;5011095;28;20233;-70
2021/12/21 10:06:12;;;;;;;27.70;11.77;;;;;-0.80;102114.00;;;;5008773;28;20294;-71
2021/12/21 10:09:06;;;;;;;31.07;12.10;;;;;-0.90;102108.00;;;;4989851;28;20387;-73
2021/12/21 10:12:14;;;;;;;23.80;11.83;;;;;-0.80;102075.00;;;;4992345;28;20608;-71
2021/12/21 10:15:05;;;;;;;24.67;12.00;;;;;-0.90;102097.00;;;;4978407;28;20250;-71
2021/12/21 10:17:53;;;;;;;25.40;12.40;;;;;-1.00;102088.00;;;;4984565;28;20243;-72
2021/12/21 10:20:43;;;;;;;22.73;11.40;;;;;-1.00;102088.00;;;;5004361;28;20225;-70
2021/12/21 10:23:32;;;;;;;30.00;13.07;;;;;-0.90;102089.00;;;;4988506;28;20238;-71
2021/12/21 10:26:20;;;;;;;23.80;13.63;;;;;-0.80;102089.00;;;;4989737;28;20230;-72
2021/12/21 10:29:10;;;;;;;26.67;13.03;;;;;-0.70;102076.00;;;;5014424;28;20241;-71
2021/12/21 10:31:58;;;;;;;37.50;13.90;;;;;-0.80;102051.00;;;;5002386;28;20378;-71
2021/12/21 10:34:51;;;;;;;28.97;12.33;;;;;-0.80;102079.00;;;;5008656;28;20273;-71
2021/12/21 10:37:40;;;;;;;24.20;12.27;;;;;-0.80;102067.00;;;;5016709;28;20238;-71
2021/12/21 10:40:27;;;;;;;25.60;12.43;;;;;-0.80;102043.00;;;;5018677;28;20246;-71
2021/12/21 10:43:14;;;;;;;23.63;12.10;;;;;-0.70;102057.00;;;;5020118;28;20724;-70
2021/12/21 10:46:00;;;;;;;22.60;12.27;;;;;-0.60;102064.00;;;;5013293;28;20851;-71
2021/12/21 10:48:49;;;;;;;24.67;12.77;;;;;-0.60;102056.00;;;;5008457;28;20776;-72
2021/12/21 10:51:36;;;;;;;39.70;12.10;;;;;-0.60;102040.00;;;;5021401;28;20241;-72
2021/12/21 10:54:27;;;;;;;27.87;13.33;;;;;-0.70;102053.00;;;;5014746;28;20364;-72
2021/12/21 10:57:18;;;;;;;26.67;12.40;;;;;-0.80;102055.00;;;;5015252;28;20233;-72
2021/12/21 11:00:08;;;;;;;27.97;12.37;;;;;-0.60;102046.00;;;;4986136;28;20230;-70
2021/12/21 11:02:55;;;;;;;35.37;12.30;;;;;-0.70;102051.00;;;;4995723;28;20888;-72
2021/12/21 11:05:48;;;;;;;23.80;11.53;;;;;-0.70;102053.00;;;;5011989;28;20238;-71
2021/12/21 11:08:37;;;;;;;33.17;12.67;;;;;-0.80;102052.00;;;;5022716;28;20233;-71
2021/12/21 11:11:29;;;;;;;31.13;12.43;;;;;-0.80;102054.00;;;;4985869;28;20238;-74
2021/12/21 11:14:18;;;;;;;28.30;12.83;;;;;-0.80;102046.00;;;;4978851;28;20227;-72
2021/12/21 11:17:06;;;;;;;24.87;12.50;;;;;-0.80;102058.00;;;;4991685;28;20242;-72
2021/12/21 11:19:52;;;;;;;26.20;13.27;;;;;-0.50;102062.00;;;;4998270;28;20960;-72
2021/12/21 11:22:41;;;;;;;29.63;12.80;;;;;-0.40;102049.00;;;;4989734;28;20365;-73
2021/12/21 11:25:28;;;;;;;29.50;13.70;;;;;-0.50;102050.00;;;;4995220;28;21128;-73
2021/12/21 11:28:16;;;;;;;24.17;11.60;;;;;-0.50;102038.00;;;;5004165;28;20238;-73
2021/12/21 11:31:05;;;;;;;27.63;12.13;;;;;-0.60;102030.00;;;;5009902;28;20277;-72
2021/12/21 11:33:56;;;;;;;28.80;12.87;;;;;-0.50;102045.00;;;;4988177;28;20608;-72
2021/12/21 11:39:50;;;;;;;26.53;13.50;;;;;-0.50;102041.00;;;;4996370;28;20332;-71
2021/12/21 11:42:41;;;;;;;30.83;13.13;;;;;-0.40;102034.00;;;;4992237;28;20730;-72
2021/12/21 11:45:31;;;;;;;26.20;12.47;;;;;-0.30;102034.00;;;;4993244;28;20234;-72
2021/12/21 11:48:25;;;;;;;22.63;12.33;;;;;-0.40;102026.00;;;;4996424;28;21146;-70
2021/12/21 11:51:14;;;;;;;29.87;13.57;;;;;-0.20;102015.00;;;;5004002;28;20358;-70
2021/12/21 11:54:00;;;;;;;32.63;12.57;;;;;-0.30;101996.00;;;;4986279;28;20234;-72
2021/12/21 11:56:48;;;;;;;27.40;13.10;;;;;-0.40;102018.00;;;;4985088;28;20230;-71
2021/12/21 11:59:34;;;;;;;32.63;13.00;;;;;-0.50;102012.00;;;;5014163;28;20268;-73
2021/12/21 12:02:31;;;;;;;26.53;13.30;;;;;-0.40;102015.00;;;;4991305;28;20373;-73
2021/12/21 12:05:20;;;;;;;34.73;13.33;;;;;-0.30;102009.00;;;;5007911;28;20236;-71
2021/12/21 12:08:09;;;;;;;24.70;13.40;;;;;-0.30;102020.00;;;;5015195;28;20427;-71
2021/12/21 12:10:59;;;;;;;25.73;12.37;;;;;-0.30;102004.00;;;;5008873;28;20297;-73
2021/12/21 12:14:04;;;;;;;30.10;12.77;;;;;-0.20;102006.00;;;;5004453;28;20233;-72
2021/12/21 12:16:54;;;;;;;25.97;12.53;;;;;-0.20;101994.00;;;;5004595;28;20716;-71
2021/12/21 12:19:43;;;;;;;28.33;13.63;;;;;-0.10;101997.00;;;;5006761;28;20709;-72
2021/12/21 12:22:34;;;;;;;30.23;13.60;;;;;-0.20;102005.00;;;;5017098;28;20241;-72
2021/12/21 12:25:23;;;;;;;29.50;13.67;;;;;-0.20;102001.00;;;;5001476;28;20230;-71
2021/12/21 12:28:22;;;;;;;35.13;15.63;;;;;0.10;102006.00;;;;4993908;28;20233;-73
2021/12/21 12:31:09;;;;;;;31.03;14.17;;;;;0.00;102000.00;;;;4990447;28;20995;-72
2021/12/21 12:33:56;;;;;;;27.20;13.60;;;;;0.10;101997.00;;;;4988174;28;20239;-71
2021/12/21 12:36:50;;;;;;;23.20;12.10;;;;;-0.20;102001.00;;;;4994335;28;20725;-73
2021/12/21 12:39:40;;;;;;;27.57;12.77;;;;;0.10;101994.00;;;;4985872;28;20250;-71
2021/12/21 12:42:29;;;;;;;24.97;12.43;;;;;0.00;101985.00;;;;4988395;28;20378;-73
2021/12/21 12:45:19;;;;;;;26.60;12.77;;;;;-0.10;101995.00;;;;4976587;28;20227;-75
2021/12/21 12:48:18;;;;;;;29.27;12.97;;;;;-0.20;102002.00;;;;4983234;28;20671;-72
2021/12/21 12:51:07;;;;;;;26.27;12.87;;;;;-0.20;101987.00;;;;4980135;28;20617;-72
2021/12/21 12:53:54;;;;;;;31.27;12.87;;;;;-0.10;101989.00;;;;4999236;28;20296;-72
2021/12/21 12:56:40;;;;;;;31.20;13.60;;;;;0.00;101979.00;;;;5004179;28;20229;-73
2021/12/21 12:59:27;;;;;;;28.40;12.63;;;;;-0.20;101987.00;;;;4981096;28;20307;-72
2021/12/21 13:02:14;;;;;;;26.27;12.40;;;;;-0.10;101971.00;;;;4980230;28;20249;-72
2021/12/21 13:05:10;;;;;;;26.77;11.90;;;;;-0.10;101987.00;;;;5000756;28;20234;-72
2021/12/21 13:08:07;;;;;;;27.83;13.40;;;;;-0.20;101988.00;;;;5004967;28;20296;-72
2021/12/21 13:10:55;;;;;;;28.73;15.23;;;;;0.00;101984.00;;;;5003599;28;20238;-70
2021/12/21 13:13:44;;;;;;;30.73;14.43;;;;;-0.10;101984.00;;;;5013429;28;20237;-70
2021/12/21 13:16:32;;;;;;;27.13;14.00;;;;;-0.10;101976.00;;;;4994206;28;20366;-70
2021/12/21 13:19:19;;;;;;;22.47;12.27;;;;;-0.10;101985.00;;;;5008851;28;20273;-71
2021/12/21 13:22:07;;;;;;;24.07;13.17;;;;;0.00;101984.00;;;;5011156;28;20233;-70
2021/12/21 13:24:54;;;;;;;32.43;13.30;;;;;-0.20;101991.00;;;;4988799;28;20229;-70
2021/12/21 13:27:40;;;;;;;25.13;12.60;;;;;-0.20;101978.00;;;;4997315;28;20222;-70
2021/12/21 13:30:26;;;;;;;29.13;13.73;;;;;-0.20;101978.00;;;;4993865;28;20328;-71
2021/12/21 13:33:23;;;;;;;23.50;11.23;;;;;-0.10;101978.00;;;;4986293;28;20239;-72
2021/12/21 13:36:10;;;;;;;24.03;11.87;;;;;-0.10;101973.00;;;;5001906;28;20361;-71
2021/12/21 13:38:57;;;;;;;28.07;13.77;;;;;-0.10;101974.00;;;;5007468;28;20260;-71
2021/12/21 13:41:55;;;;;;;28.73;13.40;;;;;-0.10;101986.00;;;;5003370;28;20230;-71
2021/12/21 13:44:45;;;;;;;25.00;12.93;;;;;0.00;101986.00;;;;5013480;28;20234;-70
2021/12/21 13:47:36;;;;;;;33.87;13.67;;;;;-0.20;101987.00;;;;4982245;28;20312;-71
2021/12/21 13:50:25;;;;;;;30.63;13.50;;;;;-0.20;101985.00;;;;4983780;28;20237;-70
2021/12/21 13:53:12;;;;;;;28.17;13.60;;;;;0.00;101978.00;;;;4997337;28;20226;-70
2021/12/21 13:55:59;;;;;;;30.80;15.23;;;;;-0.10;101985.00;;;;5012513;28;20287;-71
2021/12/21 13:58:46;;;;;;;30.77;14.13;;;;;-0.10;101978.00;;;;5003820;28;20276;-71
2021/12/21 14:01:34;;;;;;;35.37;15.50;;;;;0.00;101978.00;;;;5011654;28;20721;-71
2021/12/21 14:04:26;;;;;;;33.67;15.50;;;;;0.20;101991.00;;;;4991674;28;20222;-68